Portage Glacier, Alaska
Current Conditions -  °F | °C
As of 9:53 PM on Thursday 27 Nov 2014 (Local Time) from PATO Reporting Station
Overcast Overcast  
Wind Chill: 21°   Ceiling: 400
Heat Index: 21°   Visibility: 10mi
Dew Point: 21°   Wind: 0mph
Humidity: 100%   Direction: NA
Pressure: 30.19"   Gusts: NA
Location:  60.78°N, 148.85°W
Report Text: PATO 280653Z AUTO 00000KT 10SM OVC004 M06/M06 A3019 RMK AO2 SLP226 T10611061 TSNO
Loading
Personal Weather Stations






























Interactive Weather Map New forecast layout! Learn more

10-Day Weather Forecast

Advertisements
Track Severe Weather on mobile